createdAt,value
2017-11-17T17:22:24.550Z,1016.56
2017-11-17T17:23:25.136Z,1016.55
2017-11-17T17:24:25.721Z,1016.56
2017-11-17T17:25:26.323Z,1016.55
2017-11-17T17:26:26.912Z,1016.54
2017-11-17T17:27:27.505Z,1016.55
2017-11-17T17:28:28.121Z,1016.51
2017-11-17T17:29:28.711Z,1016.53
2017-11-17T17:30:29.300Z,1016.57
2017-11-17T17:31:29.897Z,1016.54
2017-11-17T17:32:30.490Z,1016.55
2017-11-17T17:33:31.090Z,1016.56
2017-11-17T17:34:31.694Z,1016.54
2017-11-17T17:35:32.283Z,1016.59
2017-11-17T17:36:32.881Z,1016.54
2017-11-17T17:37:33.484Z,1016.57
2017-11-17T17:38:34.069Z,1016.55
2017-11-17T17:39:34.676Z,1016.58
2017-11-17T17:40:35.289Z,1016.57
2017-11-17T17:41:35.895Z,1016.55
2017-11-17T17:42:36.491Z,1016.59
2017-11-17T17:43:37.086Z,1016.57
2017-11-17T17:44:37.679Z,1016.57
2017-11-17T17:45:38.282Z,1016.59
2017-11-17T17:46:38.883Z,1016.58
2017-11-17T17:47:39.472Z,1016.57
2017-11-17T17:48:40.069Z,1016.62
2017-11-17T17:49:40.665Z,1016.63
2017-11-17T17:50:41.245Z,1016.64
2017-11-17T17:51:41.848Z,1016.60
2017-11-17T17:52:42.443Z,1016.64
2017-11-17T17:53:43.034Z,1016.67
2017-11-17T17:54:43.631Z,1016.63
2017-11-17T17:55:44.227Z,1016.66
2017-11-17T17:56:44.817Z,1016.67
2017-11-17T17:57:45.413Z,1016.70
2017-11-17T17:58:46.005Z,1016.73
2017-11-17T17:59:46.608Z,1016.70
2017-11-17T18:00:47.213Z,1016.73
2017-11-17T18:01:47.803Z,1016.75
2017-11-17T18:02:48.418Z,1016.75
2017-11-17T18:03:49.004Z,1016.80
2017-11-17T18:04:49.606Z,1016.76
2017-11-17T18:05:50.211Z,1016.72
2017-11-17T18:06:50.819Z,1016.79
2017-11-17T18:07:51.422Z,1016.82
2017-11-17T18:08:52.011Z,1016.83
2017-11-17T18:09:52.610Z,1016.87
2017-11-17T18:10:53.226Z,1016.91
2017-11-17T18:11:53.818Z,1016.87
2017-11-17T18:12:54.405Z,1016.91
2017-11-17T18:13:55.012Z,1016.92
2017-11-17T18:14:55.617Z,1016.91
2017-11-17T18:15:56.217Z,1016.93
2017-11-17T18:16:56.810Z,1016.96
2017-11-17T18:17:57.431Z,1016.98
2017-11-17T18:18:58.005Z,1016.99
2017-11-17T18:19:58.594Z,1017.01
2017-11-17T18:20:59.193Z,1017.03
2017-11-17T18:21:59.804Z,1017.02
2017-11-17T18:23:00.417Z,1017.05
2017-11-17T18:24:01.017Z,1017.08
2017-11-17T18:25:01.618Z,1017.09
2017-11-17T18:26:02.218Z,1017.14
2017-11-17T18:27:02.805Z,1017.14
2017-11-17T18:28:03.419Z,1017.13
2017-11-17T18:29:04.012Z,1017.06
2017-11-17T18:30:04.644Z,1017.07
2017-11-17T18:31:05.239Z,1017.04
2017-11-17T18:32:05.904Z,1017.07
2017-11-17T18:33:06.448Z,1017.03
2017-11-17T18:34:07.064Z,1017.04
2017-11-17T18:35:07.618Z,1017.05
2017-11-17T18:36:08.218Z,1017.04
2017-11-17T18:37:08.829Z,1017.04
2017-11-17T18:38:09.431Z,1017.04
2017-11-17T18:39:10.066Z,1017.03
2017-11-17T18:40:10.636Z,1017.04
2017-11-17T18:41:11.221Z,1017.07
2017-11-17T18:42:11.846Z,1017.06
2017-11-17T18:43:12.489Z,1017.02
2017-11-17T18:44:13.150Z,1017.05
2017-11-17T18:45:13.673Z,1017.00
2017-11-17T18:46:14.301Z,1016.99
2017-11-17T18:47:14.909Z,1017.06
2017-11-17T18:48:15.515Z,1017.09
2017-11-17T18:49:16.092Z,1017.06
2017-11-17T18:50:16.737Z,1017.06
2017-11-17T18:51:17.276Z,1017.03
2017-11-17T18:52:17.869Z,1017.05
2017-11-17T18:53:18.492Z,1017.00
2017-11-17T18:54:19.136Z,1017.01
2017-11-17T18:55:19.764Z,1017.00
2017-11-17T18:56:20.378Z,1016.98
2017-11-17T18:57:20.979Z,1016.98
2017-11-17T18:58:21.564Z,1016.92
2017-11-17T18:59:22.222Z,1016.94
2017-11-17T19:00:22.779Z,1016.90
2017-11-17T19:01:23.354Z,1016.90
2017-11-17T19:02:23.955Z,1016.86
2017-11-17T19:03:24.531Z,1016.85
2017-11-17T19:04:25.166Z,1016.84
2017-11-17T19:05:25.715Z,1016.84
2017-11-17T19:06:26.300Z,1016.80
2017-11-17T19:07:26.949Z,1016.76
2017-11-17T19:08:27.500Z,1016.80
2017-11-17T19:09:28.104Z,1016.74
2017-11-17T19:10:28.703Z,1016.76
2017-11-17T19:11:29.384Z,1016.78
2017-11-17T19:12:29.973Z,1016.78
2017-11-17T19:13:30.558Z,1016.76
2017-11-17T19:14:31.154Z,1016.74
2017-11-17T19:15:31.793Z,1016.70
2017-11-17T19:16:32.408Z,1016.66
2017-11-17T19:17:32.963Z,1016.66
2017-11-17T19:18:33.556Z,1016.64
2017-11-17T19:19:34.184Z,1016.60
2017-11-17T19:20:34.803Z,1016.65
2017-11-17T19:21:35.431Z,1016.64
2017-11-17T19:22:36.022Z,1016.61
2017-11-17T19:23:36.647Z,1016.62
2017-11-17T19:24:37.267Z,1016.58
2017-11-17T19:25:37.856Z,1016.59
2017-11-17T19:26:38.458Z,1016.55
2017-11-17T19:27:39.089Z,1016.56
2017-11-17T19:28:39.661Z,1016.55
2017-11-17T19:29:40.255Z,1016.56
2017-11-17T19:30:40.870Z,1016.57
2017-11-17T19:31:41.463Z,1016.54
2017-11-17T19:32:42.062Z,1016.54
2017-11-17T19:33:42.664Z,1016.55
2017-11-17T19:34:43.259Z,1016.54
2017-11-17T19:35:43.850Z,1016.53
2017-11-17T19:36:44.449Z,1016.53
2017-11-17T19:37:45.054Z,1016.53
2017-11-17T19:38:45.655Z,1016.52
2017-11-17T19:39:46.247Z,1016.53
2017-11-17T19:40:46.861Z,1016.55
2017-11-17T19:41:47.452Z,1016.51
2017-11-17T19:42:48.042Z,1016.48
2017-11-17T19:43:48.629Z,1016.46
2017-11-17T19:44:49.230Z,1016.45
2017-11-17T19:45:49.822Z,1016.46
2017-11-17T19:46:50.415Z,1016.42
2017-11-17T19:47:51.010Z,1016.40
2017-11-17T19:48:51.616Z,1016.37
2017-11-17T19:49:52.215Z,1016.37
2017-11-17T19:50:52.817Z,1016.34
2017-11-17T19:51:53.409Z,1016.30
2017-11-17T19:52:54.017Z,1016.27
2017-11-17T19:53:54.604Z,1016.26
2017-11-17T19:54:55.206Z,1016.21
2017-11-17T19:55:55.785Z,1016.17
2017-11-17T19:56:56.391Z,1016.14
2017-11-17T19:57:56.984Z,1016.15
2017-11-17T19:58:57.586Z,1016.16
2017-11-17T19:59:58.184Z,1016.12
2017-11-17T20:00:58.786Z,1016.16
2017-11-17T20:01:59.373Z,1016.16
2017-11-17T20:02:59.976Z,1016.23
2017-11-17T20:04:00.560Z,1016.26
2017-11-17T20:05:01.162Z,1016.29
2017-11-17T20:06:01.768Z,1016.33
2017-11-17T20:07:02.366Z,1016.29
2017-11-17T20:08:02.965Z,1016.27
2017-11-17T20:09:03.570Z,1016.20
2017-11-17T20:10:04.168Z,1016.18
2017-11-17T20:11:04.768Z,1016.19
2017-11-17T20:12:05.367Z,1016.20
2017-11-17T20:13:05.963Z,1016.18
2017-11-17T20:14:06.557Z,1016.18
2017-11-17T20:15:07.166Z,1016.17
2017-11-17T20:16:07.778Z,1016.14
2017-11-17T20:17:08.365Z,1016.16
2017-11-17T20:18:08.980Z,1016.12
2017-11-17T20:19:09.570Z,1016.16
2017-11-17T20:20:10.174Z,1016.21
2017-11-17T20:21:10.776Z,1016.22
2017-11-17T20:22:11.367Z,1016.22
2017-11-17T20:23:11.964Z,1016.20
2017-11-17T20:24:12.554Z,1016.25
2017-11-17T20:25:13.159Z,1016.26
2017-11-17T20:26:13.748Z,1016.22
2017-11-17T20:27:14.345Z,1016.22
2017-11-17T20:28:14.956Z,1016.24
2017-11-17T20:29:15.542Z,1016.30
2017-11-17T20:30:16.146Z,1016.31
2017-11-17T20:31:16.764Z,1016.29
2017-11-17T20:32:17.353Z,1016.33
2017-11-17T20:33:17.945Z,1016.35
2017-11-17T20:34:18.539Z,1016.40
2017-11-17T20:35:19.139Z,1016.47
2017-11-17T20:36:19.745Z,1016.42
2017-11-17T20:37:20.343Z,1016.46
2017-11-17T20:38:20.940Z,1016.45
2017-11-17T20:39:21.539Z,1016.48
2017-11-17T20:40:22.142Z,1016.51
2017-11-17T20:41:22.743Z,1016.48
2017-11-17T20:42:23.339Z,1016.49
2017-11-17T20:43:23.937Z,1016.47
2017-11-17T20:44:24.538Z,1016.44
2017-11-17T20:45:25.156Z,1016.40
2017-11-17T20:46:25.735Z,1016.43
2017-11-17T20:47:26.328Z,1016.46
2017-11-17T20:48:26.933Z,1016.44
2017-11-17T20:49:27.539Z,1016.44
2017-11-17T20:50:28.159Z,1016.45
2017-11-17T20:51:28.772Z,1016.44
2017-11-17T20:52:29.356Z,1016.42
2017-11-17T20:53:29.960Z,1016.41
2017-11-17T20:54:30.588Z,1016.40
2017-11-17T20:55:31.155Z,1016.39
2017-11-17T20:56:31.747Z,1016.39
2017-11-17T20:57:32.344Z,1016.41
2017-11-17T20:58:32.954Z,1016.39
2017-11-17T20:59:33.562Z,1016.42
2017-11-17T21:00:34.172Z,1016.40
2017-11-17T21:01:34.760Z,1016.40
2017-11-17T21:02:35.358Z,1016.39
2017-11-17T21:03:35.958Z,1016.41
2017-11-17T21:04:36.554Z,1016.35
2017-11-17T21:05:37.148Z,1016.29
2017-11-17T21:06:37.745Z,1016.25
2017-11-17T21:07:38.363Z,1016.29
2017-11-17T21:08:38.960Z,1016.25
2017-11-17T21:09:39.563Z,1016.27
2017-11-17T21:10:40.166Z,1016.28
2017-11-17T21:11:40.774Z,1016.22
2017-11-17T21:12:41.374Z,1016.25
2017-11-17T21:13:41.975Z,1016.29
2017-11-17T21:14:42.571Z,1016.28
2017-11-17T21:15:43.164Z,1016.30
2017-11-17T21:16:43.755Z,1016.27
2017-11-17T21:17:44.369Z,1016.27
2017-11-17T21:18:44.957Z,1016.24
2017-11-17T21:19:45.566Z,1016.22
2017-11-17T21:20:46.158Z,1016.29
2017-11-17T21:21:46.761Z,1016.24
2017-11-17T21:22:47.356Z,1016.22
2017-11-17T21:23:47.950Z,1016.22
2017-11-17T21:24:48.533Z,1016.19
2017-11-17T21:25:49.130Z,1016.22
2017-11-17T21:26:49.724Z,1016.22
2017-11-17T21:27:50.368Z,1016.23
2017-11-17T21:28:50.962Z,1016.25
2017-11-17T21:29:51.562Z,1016.24
2017-11-17T21:30:52.154Z,1016.26
2017-11-17T21:31:52.757Z,1016.26
2017-11-17T21:32:53.347Z,1016.28
2017-11-17T21:33:53.939Z,1016.26
2017-11-17T21:34:54.561Z,1016.26
2017-11-17T21:35:55.130Z,1016.24
2017-11-17T21:36:55.753Z,1016.23
2017-11-17T21:37:56.330Z,1016.24
2017-11-17T21:38:56.923Z,1016.21
2017-11-17T21:39:57.512Z,1016.24
2017-11-17T21:40:58.113Z,1016.19
2017-11-17T21:41:58.702Z,1016.16
2017-11-17T21:42:59.301Z,1016.16
2017-11-17T21:43:59.906Z,1016.18
2017-11-17T21:45:00.507Z,1016.15
2017-11-17T21:46:01.093Z,1016.16
2017-11-17T21:47:01.683Z,1016.14
2017-11-17T21:48:02.276Z,1016.17
2017-11-17T21:49:02.877Z,1016.13
2017-11-17T21:50:03.466Z,1016.12
2017-11-17T21:51:04.284Z,1016.12
2017-11-17T21:52:04.878Z,1016.11
2017-11-17T21:53:05.469Z,1016.10
2017-11-17T21:54:06.113Z,1016.12
2017-11-17T21:55:06.671Z,1016.10
2017-11-17T21:56:07.261Z,1016.10
2017-11-17T21:57:07.869Z,1016.07
2017-11-17T21:58:08.467Z,1016.08
2017-11-17T21:59:09.067Z,1016.02
2017-11-17T22:00:09.669Z,1016.05
2017-11-17T22:01:10.271Z,1016.08
2017-11-17T22:02:10.877Z,1016.13
2017-11-17T22:03:11.487Z,1016.14
2017-11-17T22:04:12.083Z,1016.19
2017-11-17T22:05:12.680Z,1016.18
2017-11-17T22:06:13.281Z,1016.15
2017-11-17T22:07:13.881Z,1016.14
2017-11-17T22:08:14.480Z,1016.10
2017-11-17T22:09:15.064Z,1016.06
2017-11-17T22:10:15.654Z,1016.06
2017-11-17T22:11:16.249Z,1016.05
2017-11-17T22:12:16.835Z,1016.03
2017-11-17T22:13:17.435Z,1016.03
2017-11-17T22:14:18.026Z,1016.05
2017-11-17T22:15:18.622Z,1015.98
2017-11-17T22:16:19.212Z,1015.97
2017-11-17T22:17:19.812Z,1015.92
2017-11-17T22:18:20.410Z,1015.93
2017-11-17T22:19:21.002Z,1015.95
2017-11-17T22:20:21.601Z,1015.97
2017-11-17T22:21:22.204Z,1015.98
2017-11-17T22:22:23.011Z,1015.98
2017-11-17T22:23:23.615Z,1016.00
2017-11-17T22:24:24.202Z,1015.97
2017-11-17T22:25:24.801Z,1015.99
2017-11-17T22:26:25.408Z,1015.99
2017-11-17T22:27:26.005Z,1015.99
2017-11-17T22:28:26.613Z,1015.98
2017-11-17T22:29:27.219Z,1015.97
2017-11-17T22:30:27.915Z,1015.97
2017-11-17T22:31:28.495Z,1015.94
2017-11-17T22:32:29.078Z,1015.93
2017-11-17T22:33:29.680Z,1015.95
2017-11-17T22:34:30.316Z,1016.03
2017-11-17T22:35:30.897Z,1016.03
2017-11-17T22:36:31.483Z,1016.05
2017-11-17T22:37:32.117Z,1015.98
2017-11-17T22:38:32.679Z,1016.10
2017-11-17T22:39:33.261Z,1016.07
2017-11-17T22:40:33.849Z,1016.00
2017-11-17T22:41:34.459Z,1016.11
2017-11-17T22:42:35.071Z,1016.15
2017-11-17T22:43:35.720Z,1016.09
2017-11-17T22:44:36.315Z,1016.09
2017-11-17T22:45:36.953Z,1016.04
2017-11-17T22:46:37.512Z,1016.08
2017-11-17T22:47:38.144Z,1016.08
2017-11-17T22:48:38.709Z,1016.04
2017-11-17T22:49:39.296Z,1016.09
2017-11-17T22:50:39.881Z,1016.05
2017-11-17T22:51:40.479Z,1016.09
2017-11-17T22:52:41.070Z,1016.05
2017-11-17T22:53:41.680Z,1016.04
2017-11-17T22:54:42.275Z,1016.05
2017-11-17T22:55:42.877Z,1016.06
2017-11-17T22:56:43.476Z,1016.07
2017-11-17T22:57:44.071Z,1016.06
2017-11-17T22:58:44.675Z,1016.03
2017-11-17T22:59:45.275Z,1016.07
2017-11-17T23:00:45.881Z,1016.07
2017-11-17T23:01:46.480Z,1016.08
2017-11-17T23:02:47.081Z,1016.10
2017-11-17T23:03:47.670Z,1016.08
2017-11-17T23:04:48.264Z,1016.12
2017-11-17T23:05:48.865Z,1016.12
2017-11-17T23:06:49.475Z,1016.07
2017-11-17T23:07:50.071Z,1016.08
2017-11-17T23:08:50.660Z,1016.06
2017-11-17T23:09:51.257Z,1016.02
2017-11-17T23:10:51.856Z,1015.98
2017-11-17T23:11:52.455Z,1016.01
2017-11-17T23:12:53.048Z,1015.98
2017-11-17T23:13:53.649Z,1015.96
2017-11-17T23:14:54.250Z,1015.99
2017-11-17T23:15:54.848Z,1015.97
2017-11-17T23:16:55.448Z,1015.91
2017-11-17T23:17:56.038Z,1015.95
2017-11-17T23:18:56.642Z,1015.95
2017-11-17T23:19:57.227Z,1015.93
2017-11-17T23:20:57.827Z,1015.93
2017-11-17T23:21:58.429Z,1015.93
2017-11-17T23:22:59.023Z,1015.93
2017-11-17T23:23:59.622Z,1015.88
2017-11-17T23:25:00.223Z,1015.90
2017-11-17T23:26:00.816Z,1015.90
2017-11-17T23:27:01.433Z,1015.86
2017-11-17T23:28:02.013Z,1015.86
2017-11-17T23:29:02.615Z,1015.82
2017-11-17T23:30:03.223Z,1015.82
2017-11-17T23:31:03.810Z,1015.78
2017-11-17T23:32:04.411Z,1015.72
2017-11-17T23:33:05.009Z,1015.73
2017-11-17T23:34:05.612Z,1015.76
2017-11-17T23:35:06.199Z,1015.73
2017-11-17T23:36:06.800Z,1015.76
2017-11-17T23:37:07.402Z,1015.77
2017-11-17T23:38:08.000Z,1015.75
2017-11-17T23:39:08.582Z,1015.80
2017-11-17T23:40:09.201Z,1015.72
2017-11-17T23:41:09.780Z,1015.76
2017-11-17T23:42:10.369Z,1015.70
2017-11-17T23:43:10.992Z,1015.72
2017-11-17T23:44:11.555Z,1015.68
2017-11-17T23:45:12.156Z,1015.65
2017-11-17T23:46:12.760Z,1015.66
2017-11-17T23:47:13.381Z,1015.64
2017-11-17T23:48:13.957Z,1015.62
2017-11-17T23:49:14.561Z,1015.56
2017-11-17T23:50:15.166Z,1015.52
2017-11-17T23:51:15.754Z,1015.49
2017-11-17T23:52:16.367Z,1015.48
2017-11-17T23:53:16.951Z,1015.47
2017-11-17T23:54:17.557Z,1015.48
2017-11-17T23:55:18.153Z,1015.53
2017-11-17T23:56:18.751Z,1015.54
2017-11-17T23:57:19.354Z,1015.53
2017-11-17T23:58:19.954Z,1015.52
2017-11-17T23:59:20.551Z,1015.48
